sensor_id;sensor_type;location;lat;lon;timestamp;P1;durP1;ratioP1;P2;durP2;ratioP2
5878;SDS011;2965;42.640;23.370;2022-10-15T04:01:44;8.73;;;7.40;;
5878;SDS011;2965;42.640;23.370;2022-10-15T04:04:10;17.80;;;8.00;;
5878;SDS011;2965;42.640;23.370;2022-10-15T04:06:36;9.50;;;7.07;;
5878;SDS011;2965;42.640;23.370;2022-10-15T04:09:02;15.87;;;7.93;;
5878;SDS011;2965;42.640;23.370;2022-10-15T04:11:28;8.50;;;6.87;;
5878;SDS011;2965;42.640;23.370;2022-10-15T04:13:53;7.60;;;6.90;;
5878;SDS011;2965;42.640;23.370;2022-10-15T04:16:18;12.17;;;6.63;;
5878;SDS011;2965;42.640;23.370;2022-10-15T04:18:44;7.13;;;6.40;;
5878;SDS011;2965;42.640;23.370;2022-10-15T04:21:09;9.00;;;7.27;;
5878;SDS011;2965;42.640;23.370;2022-10-15T04:23:34;7.93;;;7.33;;
5878;SDS011;2965;42.640;23.370;2022-10-15T04:26:00;8.57;;;7.60;;
5878;SDS011;2965;42.640;23.370;2022-10-15T04:28:26;14.00;;;7.83;;
5878;SDS011;2965;42.640;23.370;2022-10-15T04:30:58;6.93;;;6.50;;
5878;SDS011;2965;42.640;23.370;2022-10-15T04:33:25;8.87;;;7.40;;
5878;SDS011;2965;42.640;23.370;2022-10-15T04:36:00;9.83;;;7.40;;
5878;SDS011;2965;42.640;23.370;2022-10-15T04:38:27;8.83;;;7.60;;
5878;SDS011;2965;42.640;23.370;2022-10-15T04:40:57;7.20;;;6.63;;
5878;SDS011;2965;42.640;23.370;2022-10-15T04:43:32;12.10;;;7.83;;
5878;SDS011;2965;42.640;23.370;2022-10-15T04:45:58;7.80;;;7.00;;
5878;SDS011;2965;42.640;23.370;2022-10-15T04:48:28;10.20;;;7.40;;
5878;SDS011;2965;42.640;23.370;2022-10-15T04:50:58;16.13;;;8.20;;
5878;SDS011;2965;42.640;23.370;2022-10-15T04:53:27;8.33;;;7.53;;
5878;SDS011;2965;42.640;23.370;2022-10-15T04:55:58;7.80;;;7.20;;
5878;SDS011;2965;42.640;23.370;2022-10-15T04:58:31;8.20;;;7.50;;
5878;SDS011;2965;42.640;23.370;2022-10-15T05:00:59;7.97;;;7.37;;
5878;SDS011;2965;42.640;23.370;2022-10-15T05:03:25;7.80;;;7.20;;
5878;SDS011;2965;42.640;23.370;2022-10-15T05:05:51;8.43;;;7.73;;
5878;SDS011;2965;42.640;23.370;2022-10-15T05:08:16;10.73;;;7.70;;
5878;SDS011;2965;42.640;23.370;2022-10-15T05:10:42;10.70;;;7.77;;
5878;SDS011;2965;42.640;23.370;2022-10-15T05:13:07;8.07;;;7.30;;
5878;SDS011;2965;42.640;23.370;2022-10-15T05:15:32;9.43;;;8.27;;
5878;SDS011;2965;42.640;23.370;2022-10-15T05:17:58;8.27;;;7.40;;
5878;SDS011;2965;42.640;23.370;2022-10-15T05:20:23;24.27;;;8.23;;
5878;SDS011;2965;42.640;23.370;2022-10-15T05:22:48;14.10;;;8.30;;
5878;SDS011;2965;42.640;23.370;2022-10-15T05:25:14;7.30;;;6.70;;
5878;SDS011;2965;42.640;23.370;2022-10-15T05:27:39;8.07;;;7.37;;
5878;SDS011;2965;42.640;23.370;2022-10-15T05:30:05;9.07;;;8.37;;
5878;SDS011;2965;42.640;23.370;2022-10-15T05:32:30;10.70;;;7.40;;
5878;SDS011;2965;42.640;23.370;2022-10-15T05:34:56;10.00;;;6.43;;
5878;SDS011;2965;42.640;23.370;2022-10-15T05:37:21;8.40;;;7.17;;
5878;SDS011;2965;42.640;23.370;2022-10-15T05:39:47;8.80;;;7.00;;
5878;SDS011;2965;42.640;23.370;2022-10-15T05:42:13;9.60;;;7.80;;
5878;SDS011;2965;42.640;23.370;2022-10-15T05:44:38;8.03;;;7.33;;
5878;SDS011;2965;42.640;23.370;2022-10-15T05:47:03;14.17;;;8.67;;
5878;SDS011;2965;42.640;23.370;2022-10-15T05:49:29;8.90;;;6.80;;
5878;SDS011;2965;42.640;23.370;2022-10-15T05:51:55;8.00;;;7.40;;
5878;SDS011;2965;42.640;23.370;2022-10-15T05:54:20;8.03;;;7.17;;
5878;SDS011;2965;42.640;23.370;2022-10-15T05:56:46;7.20;;;6.67;;
5878;SDS011;2965;42.640;23.370;2022-10-15T05:59:11;9.60;;;7.57;;
5878;SDS011;2965;42.640;23.370;2022-10-15T06:01:37;13.77;;;9.50;;
5878;SDS011;2965;42.640;23.370;2022-10-15T06:04:02;9.93;;;8.43;;
5878;SDS011;2965;42.640;23.370;2022-10-15T06:06:27;8.33;;;7.73;;
5878;SDS011;2965;42.640;23.370;2022-10-15T06:08:53;10.63;;;9.60;;
5878;SDS011;2965;42.640;23.370;2022-10-15T06:11:19;13.63;;;8.13;;
5878;SDS011;2965;42.640;23.370;2022-10-15T06:13:44;15.40;;;8.53;;
5878;SDS011;2965;42.640;23.370;2022-10-15T06:16:11;10.77;;;7.83;;
5878;SDS011;2965;42.640;23.370;2022-10-15T06:18:37;9.63;;;7.97;;
5878;SDS011;2965;42.640;23.370;2022-10-15T06:21:03;9.73;;;8.67;;
5878;SDS011;2965;42.640;23.370;2022-10-15T06:23:31;10.30;;;8.17;;
5878;SDS011;2965;42.640;23.370;2022-10-15T06:26:00;10.27;;;8.60;;
5878;SDS011;2965;42.640;23.370;2022-10-15T06:28:29;10.10;;;8.60;;
5878;SDS011;2965;42.640;23.370;2022-10-15T06:30:56;8.13;;;7.43;;
5878;SDS011;2965;42.640;23.370;2022-10-15T06:33:22;9.50;;;8.03;;
5878;SDS011;2965;42.640;23.370;2022-10-15T06:35:48;11.30;;;7.97;;
5878;SDS011;2965;42.640;23.370;2022-10-15T06:38:13;10.87;;;8.50;;
5878;SDS011;2965;42.640;23.370;2022-10-15T06:40:39;8.40;;;6.97;;
5878;SDS011;2965;42.640;23.370;2022-10-15T06:43:08;18.50;;;9.20;;
5878;SDS011;2965;42.640;23.370;2022-10-15T06:45:35;11.67;;;8.63;;
5878;SDS011;2965;42.640;23.370;2022-10-15T06:48:02;11.40;;;8.27;;
5878;SDS011;2965;42.640;23.370;2022-10-15T06:50:29;12.57;;;8.40;;
5878;SDS011;2965;42.640;23.370;2022-10-15T06:52:58;9.27;;;8.33;;
5878;SDS011;2965;42.640;23.370;2022-10-15T06:55:24;8.70;;;7.83;;
5878;SDS011;2965;42.640;23.370;2022-10-15T06:57:50;10.00;;;8.10;;
5878;SDS011;2965;42.640;23.370;2022-10-15T07:00:15;9.00;;;7.47;;
5878;SDS011;2965;42.640;23.370;2022-10-15T07:02:42;8.80;;;7.03;;
5878;SDS011;2965;42.640;23.370;2022-10-15T07:05:07;10.43;;;8.47;;
5878;SDS011;2965;42.640;23.370;2022-10-15T07:07:33;11.43;;;8.80;;
5878;SDS011;2965;42.640;23.370;2022-10-15T07:09:59;11.73;;;8.77;;
5878;SDS011;2965;42.640;23.370;2022-10-15T07:12:24;15.60;;;9.20;;
5878;SDS011;2965;42.640;23.370;2022-10-15T07:14:50;9.17;;;7.40;;
5878;SDS011;2965;42.640;23.370;2022-10-15T07:17:15;9.93;;;8.23;;
5878;SDS011;2965;42.640;23.370;2022-10-15T07:19:41;14.90;;;6.80;;
5878;SDS011;2965;42.640;23.370;2022-10-15T07:22:07;11.30;;;7.93;;
5878;SDS011;2965;42.640;23.370;2022-10-15T07:24:32;10.47;;;7.50;;
5878;SDS011;2965;42.640;23.370;2022-10-15T07:26:58;9.23;;;7.10;;
5878;SDS011;2965;42.640;23.370;2022-10-15T07:29:23;9.73;;;7.57;;
5878;SDS011;2965;42.640;23.370;2022-10-15T07:31:48;13.03;;;8.27;;
5878;SDS011;2965;42.640;23.370;2022-10-15T07:34:14;15.23;;;7.30;;
5878;SDS011;2965;42.640;23.370;2022-10-15T07:36:39;10.50;;;7.17;;
5878;SDS011;2965;42.640;23.370;2022-10-15T07:39:05;12.97;;;7.30;;
5878;SDS011;2965;42.640;23.370;2022-10-15T07:41:30;11.67;;;7.00;;
5878;SDS011;2965;42.640;23.370;2022-10-15T07:43:55;8.37;;;7.57;;
5878;SDS011;2965;42.640;23.370;2022-10-15T07:46:21;12.23;;;7.80;;
5878;SDS011;2965;42.640;23.370;2022-10-15T07:48:46;9.47;;;6.87;;
5878;SDS011;2965;42.640;23.370;2022-10-15T07:51:12;7.97;;;7.23;;
5878;SDS011;2965;42.640;23.370;2022-10-15T07:53:37;7.47;;;6.90;;
5878;SDS011;2965;42.640;23.370;2022-10-15T07:56:03;6.87;;;6.27;;
5878;SDS011;2965;42.640;23.370;2022-10-15T07:58:32;7.27;;;6.57;;
5878;SDS011;2965;42.640;23.370;2022-10-15T08:00:59;11.00;;;7.67;;
5878;SDS011;2965;42.640;23.370;2022-10-15T08:03:26;13.70;;;6.73;;
5878;SDS011;2965;42.640;23.370;2022-10-15T08:05:52;7.80;;;6.80;;
5878;SDS011;2965;42.640;23.370;2022-10-15T08:08:18;8.13;;;6.50;;
5878;SDS011;2965;42.640;23.370;2022-10-15T08:10:45;8.63;;;6.27;;
5878;SDS011;2965;42.640;23.370;2022-10-15T08:13:11;6.70;;;6.20;;
5878;SDS011;2965;42.640;23.370;2022-10-15T08:15:40;5.67;;;5.37;;
5878;SDS011;2965;42.640;23.370;2022-10-15T08:18:06;11.30;;;6.13;;
5878;SDS011;2965;42.640;23.370;2022-10-15T08:20:34;6.70;;;6.10;;
5878;SDS011;2965;42.640;23.370;2022-10-15T08:23:00;7.33;;;6.73;;
5878;SDS011;2965;42.640;23.370;2022-10-15T08:25:26;6.77;;;5.90;;
5878;SDS011;2965;42.640;23.370;2022-10-15T08:27:52;6.53;;;6.03;;
5878;SDS011;2965;42.640;23.370;2022-10-15T08:30:18;7.07;;;6.30;;
5878;SDS011;2965;42.640;23.370;2022-10-15T08:32:44;5.73;;;5.40;;
5878;SDS011;2965;42.640;23.370;2022-10-15T08:35:10;5.57;;;5.20;;
5878;SDS011;2965;42.640;23.370;2022-10-15T08:37:35;6.07;;;5.67;;
5878;SDS011;2965;42.640;23.370;2022-10-15T08:40:01;7.13;;;6.13;;
5878;SDS011;2965;42.640;23.370;2022-10-15T08:42:32;7.63;;;6.87;;
5878;SDS011;2965;42.640;23.370;2022-10-15T08:45:02;9.40;;;6.10;;
5878;SDS011;2965;42.640;23.370;2022-10-15T08:47:56;5.23;;;4.83;;
5878;SDS011;2965;42.640;23.370;2022-10-15T08:50:34;5.70;;;5.20;;
5878;SDS011;2965;42.640;23.370;2022-10-15T08:53:08;6.53;;;5.93;;
5878;SDS011;2965;42.640;23.370;2022-10-15T08:55:38;6.17;;;5.83;;
5878;SDS011;2965;42.640;23.370;2022-10-15T09:00:40;15.27;;;5.20;;
5878;SDS011;2965;42.640;23.370;2022-10-15T09:03:28;4.93;;;4.50;;
5878;SDS011;2965;42.640;23.370;2022-10-15T09:08:47;6.53;;;5.40;;
5878;SDS011;2965;42.640;23.370;2022-10-15T09:11:23;5.67;;;5.10;;
5878;SDS011;2965;42.640;23.370;2022-10-15T09:14:13;8.90;;;6.67;;
5878;SDS011;2965;42.640;23.370;2022-10-15T09:16:45;6.73;;;5.00;;
5878;SDS011;2965;42.640;23.370;2022-10-15T09:19:15;7.50;;;5.93;;
5878;SDS011;2965;42.640;23.370;2022-10-15T09:21:49;5.07;;;4.77;;
5878;SDS011;2965;42.640;23.370;2022-10-15T09:24:26;4.67;;;4.47;;
5878;SDS011;2965;42.640;23.370;2022-10-15T09:27:02;4.60;;;4.30;;
5878;SDS011;2965;42.640;23.370;2022-10-15T09:29:46;4.63;;;4.23;;
5878;SDS011;2965;42.640;23.370;2022-10-15T09:35:15;5.80;;;5.40;;
5878;SDS011;2965;42.640;23.370;2022-10-15T09:41:26;6.63;;;6.10;;
5878;SDS011;2965;42.640;23.370;2022-10-15T09:43:35;5.80;;;5.40;;
5878;SDS011;2965;42.640;23.370;2022-10-15T09:46:02;5.23;;;4.87;;
5878;SDS011;2965;42.640;23.370;2022-10-15T09:48:32;8.80;;;4.60;;
5878;SDS011;2965;42.640;23.370;2022-10-15T09:51:06;3.90;;;3.80;;
5878;SDS011;2965;42.640;23.370;2022-10-15T09:53:55;6.10;;;5.70;;
5878;SDS011;2965;42.640;23.370;2022-10-15T09:56:37;5.67;;;5.20;;
5878;SDS011;2965;42.640;23.370;2022-10-15T09:59:16;6.10;;;5.70;;
5878;SDS011;2965;42.640;23.370;2022-10-15T10:01:59;6.47;;;5.73;;
5878;SDS011;2965;42.640;23.370;2022-10-15T10:04:33;5.50;;;5.20;;
5878;SDS011;2965;42.640;23.370;2022-10-15T10:07:02;4.90;;;4.70;;
5878;SDS011;2965;42.640;23.370;2022-10-15T10:09:51;6.53;;;5.97;;
5878;SDS011;2965;42.640;23.370;2022-10-15T10:12:24;6.80;;;6.10;;
5878;SDS011;2965;42.640;23.370;2022-10-15T10:14:56;5.80;;;5.30;;
5878;SDS011;2965;42.640;23.370;2022-10-15T10:17:28;5.73;;;5.43;;
5878;SDS011;2965;42.640;23.370;2022-10-15T10:25:27;7.23;;;5.77;;
5878;SDS011;2965;42.640;23.370;2022-10-15T10:27:54;5.37;;;5.10;;
5878;SDS011;2965;42.640;23.370;2022-10-15T10:30:21;8.03;;;6.33;;
5878;SDS011;2965;42.640;23.370;2022-10-15T10:32:47;5.37;;;4.90;;
5878;SDS011;2965;42.640;23.370;2022-10-15T10:35:19;4.97;;;4.67;;
5878;SDS011;2965;42.640;23.370;2022-10-15T10:37:46;6.70;;;4.83;;
5878;SDS011;2965;42.640;23.370;2022-10-15T10:40:29;5.43;;;5.00;;
5878;SDS011;2965;42.640;23.370;2022-10-15T10:48:27;5.80;;;5.27;;
5878;SDS011;2965;42.640;23.370;2022-10-15T10:51:15;6.00;;;5.40;;
5878;SDS011;2965;42.640;23.370;2022-10-15T10:56:27;4.87;;;4.57;;
5878;SDS011;2965;42.640;23.370;2022-10-15T11:01:35;4.63;;;4.33;;
5878;SDS011;2965;42.640;23.370;2022-10-15T11:04:01;4.63;;;4.33;;
5878;SDS011;2965;42.640;23.370;2022-10-15T11:18:33;5.30;;;5.00;;
5878;SDS011;2965;42.640;23.370;2022-10-15T11:23:31;6.03;;;5.37;;
5878;SDS011;2965;42.640;23.370;2022-10-15T11:31:44;5.17;;;4.20;;
5878;SDS011;2965;42.640;23.370;2022-10-15T11:39:39;5.30;;;4.90;;
5878;SDS011;2965;42.640;23.370;2022-10-15T11:56:51;4.17;;;3.97;;
5878;SDS011;2965;42.640;23.370;2022-10-15T12:01:58;5.27;;;4.97;;
5878;SDS011;2965;42.640;23.370;2022-10-15T12:07:05;6.00;;;5.00;;
5878;SDS011;2965;42.640;23.370;2022-10-15T12:09:37;4.00;;;3.80;;
5878;SDS011;2965;42.640;23.370;2022-10-15T12:17:12;4.90;;;4.37;;
5878;SDS011;2965;42.640;23.370;2022-10-15T12:20:00;11.30;;;4.20;;
5878;SDS011;2965;42.640;23.370;2022-10-15T12:28:21;4.20;;;4.00;;
5878;SDS011;2965;42.640;23.370;2022-10-15T12:30:57;5.20;;;4.90;;
5878;SDS011;2965;42.640;23.370;2022-10-15T12:33:27;4.70;;;4.23;;
5878;SDS011;2965;42.640;23.370;2022-10-15T12:36:03;4.27;;;4.07;;
5878;SDS011;2965;42.640;23.370;2022-10-15T12:38:37;4.43;;;3.90;;
5878;SDS011;2965;42.640;23.370;2022-10-15T12:41:06;4.13;;;3.80;;
5878;SDS011;2965;42.640;23.370;2022-10-15T12:43:52;3.97;;;3.80;;
5878;SDS011;2965;42.640;23.370;2022-10-15T12:46:36;4.27;;;4.07;;
5878;SDS011;2965;42.640;23.370;2022-10-15T12:49:44;4.13;;;3.87;;
5878;SDS011;2965;42.640;23.370;2022-10-15T12:51:54;4.27;;;3.97;;
5878;SDS011;2965;42.640;23.370;2022-10-15T12:57:01;4.27;;;4.07;;
5878;SDS011;2965;42.640;23.370;2022-10-15T13:04:59;4.23;;;3.83;;
5878;SDS011;2965;42.640;23.370;2022-10-15T13:07:24;4.63;;;4.33;;
5878;SDS011;2965;42.640;23.370;2022-10-15T13:09:50;4.97;;;4.67;;
5878;SDS011;2965;42.640;23.370;2022-10-15T13:12:21;4.80;;;3.73;;
5878;SDS011;2965;42.640;23.370;2022-10-15T13:14:51;4.27;;;4.00;;
5878;SDS011;2965;42.640;23.370;2022-10-15T13:17:21;4.40;;;4.00;;
5878;SDS011;2965;42.640;23.370;2022-10-15T13:19:57;5.63;;;3.60;;
5878;SDS011;2965;42.640;23.370;2022-10-15T13:22:25;4.07;;;3.87;;
5878;SDS011;2965;42.640;23.370;2022-10-15T13:24:52;6.13;;;5.53;;
5878;SDS011;2965;42.640;23.370;2022-10-15T13:29:59;4.33;;;4.13;;
5878;SDS011;2965;42.640;23.370;2022-10-15T13:32:26;4.80;;;4.37;;
5878;SDS011;2965;42.640;23.370;2022-10-15T13:34:55;3.90;;;3.70;;
5878;SDS011;2965;42.640;23.370;2022-10-15T13:37:39;11.13;;;3.97;;
5878;SDS011;2965;42.640;23.370;2022-10-15T13:40:07;4.40;;;3.70;;
5878;SDS011;2965;42.640;23.370;2022-10-15T13:42:40;4.03;;;3.53;;
5878;SDS011;2965;42.640;23.370;2022-10-15T13:45:25;3.50;;;3.30;;
5878;SDS011;2965;42.640;23.370;2022-10-15T13:47:52;4.00;;;3.80;;
5878;SDS011;2965;42.640;23.370;2022-10-15T13:52:49;5.10;;;3.50;;
5878;SDS011;2965;42.640;23.370;2022-10-15T13:55:26;3.80;;;3.70;;
5878;SDS011;2965;42.640;23.370;2022-10-15T13:58:20;8.43;;;4.43;;
5878;SDS011;2965;42.640;23.370;2022-10-15T14:01:07;3.97;;;3.73;;
5878;SDS011;2965;42.640;23.370;2022-10-15T14:03:33;3.70;;;3.40;;
5878;SDS011;2965;42.640;23.370;2022-10-15T14:06:08;3.60;;;3.40;;
5878;SDS011;2965;42.640;23.370;2022-10-15T14:08:55;3.57;;;3.37;;
5878;SDS011;2965;42.640;23.370;2022-10-15T14:11:23;3.83;;;3.60;;
5878;SDS011;2965;42.640;23.370;2022-10-15T14:13:53;4.23;;;3.93;;
5878;SDS011;2965;42.640;23.370;2022-10-15T14:21:30;3.30;;;3.20;;
5878;SDS011;2965;42.640;23.370;2022-10-15T14:24:03;3.57;;;3.30;;
5878;SDS011;2965;42.640;23.370;2022-10-15T14:26:35;3.93;;;3.47;;
5878;SDS011;2965;42.640;23.370;2022-10-15T14:29:03;4.07;;;3.73;;
5878;SDS011;2965;42.640;23.370;2022-10-15T14:33:55;4.07;;;3.70;;
5878;SDS011;2965;42.640;23.370;2022-10-15T14:38:47;3.93;;;3.60;;
5878;SDS011;2965;42.640;23.370;2022-10-15T14:41:28;3.33;;;3.13;;
5878;SDS011;2965;42.640;23.370;2022-10-15T14:43:59;3.50;;;3.40;;
5878;SDS011;2965;42.640;23.370;2022-10-15T14:46:37;3.30;;;3.17;;
5878;SDS011;2965;42.640;23.370;2022-10-15T14:51:58;3.43;;;3.23;;
5878;SDS011;2965;42.640;23.370;2022-10-15T14:54:34;7.20;;;3.70;;
5878;SDS011;2965;42.640;23.370;2022-10-15T14:57:03;3.67;;;3.23;;
5878;SDS011;2965;42.640;23.370;2022-10-15T14:59:36;12.00;;;4.03;;
5878;SDS011;2965;42.640;23.370;2022-10-15T15:02:01;8.50;;;3.33;;
5878;SDS011;2965;42.640;23.370;2022-10-15T15:04:42;3.80;;;3.60;;
5878;SDS011;2965;42.640;23.370;2022-10-15T15:07:14;4.23;;;4.03;;
5878;SDS011;2965;42.640;23.370;2022-10-15T15:09:42;4.00;;;3.70;;
5878;SDS011;2965;42.640;23.370;2022-10-15T15:12:17;7.80;;;4.03;;
5878;SDS011;2965;42.640;23.370;2022-10-15T15:14:45;3.63;;;3.43;;
5878;SDS011;2965;42.640;23.370;2022-10-15T15:17:12;3.90;;;3.70;;
5878;SDS011;2965;42.640;23.370;2022-10-15T15:19:40;3.97;;;3.63;;
5878;SDS011;2965;42.640;23.370;2022-10-15T15:22:07;4.07;;;3.77;;
5878;SDS011;2965;42.640;23.370;2022-10-15T15:24:35;4.37;;;4.00;;
5878;SDS011;2965;42.640;23.370;2022-10-15T15:27:01;3.80;;;3.60;;
5878;SDS011;2965;42.640;23.370;2022-10-15T15:29:26;4.33;;;4.10;;
5878;SDS011;2965;42.640;23.370;2022-10-15T15:31:53;9.03;;;4.17;;
5878;SDS011;2965;42.640;23.370;2022-10-15T15:34:18;5.87;;;4.20;;
5878;SDS011;2965;42.640;23.370;2022-10-15T15:36:43;5.83;;;4.40;;
5878;SDS011;2965;42.640;23.370;2022-10-15T15:39:09;7.40;;;4.10;;
5878;SDS011;2965;42.640;23.370;2022-10-15T15:41:34;8.87;;;5.10;;
5878;SDS011;2965;42.640;23.370;2022-10-15T15:43:59;5.00;;;4.70;;
5878;SDS011;2965;42.640;23.370;2022-10-15T15:46:25;5.60;;;5.20;;
5878;SDS011;2965;42.640;23.370;2022-10-15T15:48:51;3.93;;;3.63;;
5878;SDS011;2965;42.640;23.370;2022-10-15T15:51:20;5.30;;;3.97;;
5878;SDS011;2965;42.640;23.370;2022-10-15T15:53:48;4.30;;;4.00;;
5878;SDS011;2965;42.640;23.370;2022-10-15T15:56:13;4.43;;;4.13;;
5878;SDS011;2965;42.640;23.370;2022-10-15T15:58:39;4.63;;;4.40;;
5878;SDS011;2965;42.640;23.370;2022-10-15T16:01:04;8.27;;;6.40;;
5878;SDS011;2965;42.640;23.370;2022-10-15T16:03:29;6.27;;;5.70;;
5878;SDS011;2965;42.640;23.370;2022-10-15T16:05:55;5.40;;;5.00;;
5878;SDS011;2965;42.640;23.370;2022-10-15T16:08:20;5.20;;;4.70;;
5878;SDS011;2965;42.640;23.370;2022-10-15T16:10:45;5.83;;;5.33;;
5878;SDS011;2965;42.640;23.370;2022-10-15T16:13:11;7.87;;;7.00;;
5878;SDS011;2965;42.640;23.370;2022-10-15T16:15:36;12.83;;;9.37;;
5878;SDS011;2965;42.640;23.370;2022-10-15T16:18:02;11.40;;;8.23;;
5878;SDS011;2965;42.640;23.370;2022-10-15T16:20:27;14.70;;;7.27;;
5878;SDS011;2965;42.640;23.370;2022-10-15T16:22:52;6.83;;;6.30;;
5878;SDS011;2965;42.640;23.370;2022-10-15T16:25:18;10.30;;;6.60;;
5878;SDS011;2965;42.640;23.370;2022-10-15T16:27:44;8.43;;;6.47;;
5878;SDS011;2965;42.640;23.370;2022-10-15T16:30:12;36.27;;;7.27;;
5878;SDS011;2965;42.640;23.370;2022-10-15T16:32:39;7.77;;;7.03;;
5878;SDS011;2965;42.640;23.370;2022-10-15T16:35:04;6.63;;;6.10;;
5878;SDS011;2965;42.640;23.370;2022-10-15T16:37:31;6.50;;;5.90;;
5878;SDS011;2965;42.640;23.370;2022-10-15T16:39:56;7.10;;;6.30;;
5878;SDS011;2965;42.640;23.370;2022-10-15T16:42:22;11.60;;;6.57;;
5878;SDS011;2965;42.640;23.370;2022-10-15T16:44:48;12.90;;;5.37;;
5878;SDS011;2965;42.640;23.370;2022-10-15T16:47:14;8.60;;;6.80;;
5878;SDS011;2965;42.640;23.370;2022-10-15T16:49:39;7.27;;;6.03;;
5878;SDS011;2965;42.640;23.370;2022-10-15T16:52:06;8.27;;;5.80;;
5878;SDS011;2965;42.640;23.370;2022-10-15T16:54:31;7.37;;;6.80;;
5878;SDS011;2965;42.640;23.370;2022-10-15T16:56:57;10.93;;;7.13;;
5878;SDS011;2965;42.640;23.370;2022-10-15T16:59:22;11.83;;;6.13;;
5878;SDS011;2965;42.640;23.370;2022-10-15T17:01:48;6.93;;;5.80;;
5878;SDS011;2965;42.640;23.370;2022-10-15T17:04:13;12.77;;;5.60;;
5878;SDS011;2965;42.640;23.370;2022-10-15T17:06:38;6.20;;;5.70;;
5878;SDS011;2965;42.640;23.370;2022-10-15T17:09:04;7.00;;;5.17;;
5878;SDS011;2965;42.640;23.370;2022-10-15T17:11:30;6.77;;;5.37;;
5878;SDS011;2965;42.640;23.370;2022-10-15T17:14:06;5.20;;;4.90;;
5878;SDS011;2965;42.640;23.370;2022-10-15T17:16:37;7.67;;;5.30;;
5878;SDS011;2965;42.640;23.370;2022-10-15T17:19:04;6.87;;;6.20;;
5878;SDS011;2965;42.640;23.370;2022-10-15T17:21:31;7.90;;;5.63;;
5878;SDS011;2965;42.640;23.370;2022-10-15T17:23:58;7.67;;;6.97;;
5878;SDS011;2965;42.640;23.370;2022-10-15T17:26:27;6.77;;;5.90;;
5878;SDS011;2965;42.640;23.370;2022-10-15T17:28:57;9.77;;;6.30;;
5878;SDS011;2965;42.640;23.370;2022-10-15T17:31:23;16.30;;;8.50;;
5878;SDS011;2965;42.640;23.370;2022-10-15T17:33:53;11.87;;;8.77;;
5878;SDS011;2965;42.640;23.370;2022-10-15T17:36:25;9.40;;;8.13;;
5878;SDS011;2965;42.640;23.370;2022-10-15T17:38:54;13.27;;;8.57;;
5878;SDS011;2965;42.640;23.370;2022-10-15T17:41:21;10.63;;;8.20;;
5878;SDS011;2965;42.640;23.370;2022-10-15T17:43:49;15.17;;;9.73;;
5878;SDS011;2965;42.640;23.370;2022-10-15T17:46:16;15.03;;;8.90;;
5878;SDS011;2965;42.640;23.370;2022-10-15T17:48:43;12.67;;;10.30;;
5878;SDS011;2965;42.640;23.370;2022-10-15T17:51:09;15.30;;;11.00;;
5878;SDS011;2965;42.640;23.370;2022-10-15T17:53:38;19.90;;;12.60;;
5878;SDS011;2965;42.640;23.370;2022-10-15T17:58:36;12.20;;;10.10;;
5878;SDS011;2965;42.640;23.370;2022-10-15T18:01:02;21.00;;;11.70;;
5878;SDS011;2965;42.640;23.370;2022-10-15T18:03:28;22.57;;;12.33;;
5878;SDS011;2965;42.640;23.370;2022-10-15T18:05:53;18.33;;;12.63;;
5878;SDS011;2965;42.640;23.370;2022-10-15T18:08:19;15.80;;;11.00;;
5878;SDS011;2965;42.640;23.370;2022-10-15T18:10:48;16.73;;;11.27;;
5878;SDS011;2965;42.640;23.370;2022-10-15T18:13:15;26.73;;;10.43;;
5878;SDS011;2965;42.640;23.370;2022-10-15T18:15:47;18.40;;;9.63;;
5878;SDS011;2965;42.640;23.370;2022-10-15T18:18:16;12.33;;;8.97;;
5878;SDS011;2965;42.640;23.370;2022-10-15T18:20:42;15.27;;;9.50;;
5878;SDS011;2965;42.640;23.370;2022-10-15T18:23:09;13.57;;;10.00;;
5878;SDS011;2965;42.640;23.370;2022-10-15T18:25:35;17.50;;;10.33;;
5878;SDS011;2965;42.640;23.370;2022-10-15T18:28:04;16.63;;;11.03;;
5878;SDS011;2965;42.640;23.370;2022-10-15T18:30:31;20.60;;;11.80;;
5878;SDS011;2965;42.640;23.370;2022-10-15T18:32:59;27.83;;;11.70;;
5878;SDS011;2965;42.640;23.370;2022-10-15T18:35:24;28.83;;;15.87;;
5878;SDS011;2965;42.640;23.370;2022-10-15T18:37:50;31.47;;;14.23;;
5878;SDS011;2965;42.640;23.370;2022-10-15T18:40:15;23.67;;;14.47;;
5878;SDS011;2965;42.640;23.370;2022-10-15T18:42:40;21.10;;;12.93;;
5878;SDS011;2965;42.640;23.370;2022-10-15T18:45:06;24.70;;;15.07;;
5878;SDS011;2965;42.640;23.370;2022-10-15T18:47:31;22.60;;;14.07;;
5878;SDS011;2965;42.640;23.370;2022-10-15T18:49:57;17.90;;;12.10;;
5878;SDS011;2965;42.640;23.370;2022-10-15T18:52:22;31.07;;;13.10;;
5878;SDS011;2965;42.640;23.370;2022-10-15T18:54:48;22.33;;;14.17;;
5878;SDS011;2965;42.640;23.370;2022-10-15T18:57:13;17.57;;;12.20;;
5878;SDS011;2965;42.640;23.370;2022-10-15T18:59:38;25.53;;;11.70;;
5878;SDS011;2965;42.640;23.370;2022-10-15T19:02:04;18.60;;;11.17;;
5878;SDS011;2965;42.640;23.370;2022-10-15T19:04:29;18.13;;;10.73;;
5878;SDS011;2965;42.640;23.370;2022-10-15T19:06:54;23.30;;;10.33;;
5878;SDS011;2965;42.640;23.370;2022-10-15T19:09:24;15.10;;;9.70;;
5878;SDS011;2965;42.640;23.370;2022-10-15T19:11:51;15.60;;;9.30;;
5878;SDS011;2965;42.640;23.370;2022-10-15T19:14:18;20.50;;;9.77;;
5878;SDS011;2965;42.640;23.370;2022-10-15T19:16:44;17.27;;;9.70;;
5878;SDS011;2965;42.640;23.370;2022-10-15T19:19:11;15.37;;;10.07;;
5878;SDS011;2965;42.640;23.370;2022-10-15T19:21:40;14.37;;;9.73;;
5878;SDS011;2965;42.640;23.370;2022-10-15T19:24:06;12.87;;;9.93;;
5878;SDS011;2965;42.640;23.370;2022-10-15T19:26:31;11.90;;;9.37;;
5878;SDS011;2965;42.640;23.370;2022-10-15T19:28:57;13.30;;;9.80;;
5878;SDS011;2965;42.640;23.370;2022-10-15T19:31:23;30.87;;;11.63;;
5878;SDS011;2965;42.640;23.370;2022-10-15T19:33:50;18.33;;;10.20;;
5878;SDS011;2965;42.640;23.370;2022-10-15T19:36:19;10.07;;;8.13;;
5878;SDS011;2965;42.640;23.370;2022-10-15T19:38:56;9.33;;;8.17;;
5878;SDS011;2965;42.640;23.370;2022-10-15T19:41:25;11.23;;;8.33;;
5878;SDS011;2965;42.640;23.370;2022-10-15T19:43:50;8.67;;;7.50;;
5878;SDS011;2965;42.640;23.370;2022-10-15T19:46:16;8.23;;;7.43;;
5878;SDS011;2965;42.640;23.370;2022-10-15T19:48:41;10.53;;;7.23;;
5878;SDS011;2965;42.640;23.370;2022-10-15T19:51:06;13.47;;;7.30;;
5878;SDS011;2965;42.640;23.370;2022-10-15T19:53:32;10.40;;;7.43;;
5878;SDS011;2965;42.640;23.370;2022-10-15T19:55:59;10.40;;;7.40;;
5878;SDS011;2965;42.640;23.370;2022-10-15T19:58:26;7.93;;;6.83;;
5878;SDS011;2965;42.640;23.370;2022-10-15T20:00:52;15.97;;;7.50;;
5878;SDS011;2965;42.640;23.370;2022-10-15T20:03:18;8.50;;;7.70;;
5878;SDS011;2965;42.640;23.370;2022-10-15T20:05:45;10.23;;;7.30;;
5878;SDS011;2965;42.640;23.370;2022-10-15T20:08:11;10.43;;;6.83;;
5878;SDS011;2965;42.640;23.370;2022-10-15T20:10:38;8.13;;;7.43;;
5878;SDS011;2965;42.640;23.370;2022-10-15T20:13:05;7.97;;;6.77;;
5878;SDS011;2965;42.640;23.370;2022-10-15T20:15:31;5.53;;;5.13;;
5878;SDS011;2965;42.640;23.370;2022-10-15T20:17:57;13.07;;;6.83;;
5878;SDS011;2965;42.640;23.370;2022-10-15T20:20:22;9.07;;;7.03;;
5878;SDS011;2965;42.640;23.370;2022-10-15T20:22:47;10.50;;;6.50;;
5878;SDS011;2965;42.640;23.370;2022-10-15T20:25:13;6.37;;;5.77;;
5878;SDS011;2965;42.640;23.370;2022-10-15T20:27:38;6.40;;;5.90;;
5878;SDS011;2965;42.640;23.370;2022-10-15T20:30:03;8.40;;;5.87;;
5878;SDS011;2965;42.640;23.370;2022-10-15T20:32:30;9.83;;;5.97;;
5878;SDS011;2965;42.640;23.370;2022-10-15T20:34:55;7.70;;;7.00;;
5878;SDS011;2965;42.640;23.370;2022-10-15T20:37:20;8.67;;;7.33;;
5878;SDS011;2965;42.640;23.370;2022-10-15T20:39:46;8.20;;;6.17;;
5878;SDS011;2965;42.640;23.370;2022-10-15T20:42:11;6.67;;;6.13;;
5878;SDS011;2965;42.640;23.370;2022-10-15T20:44:37;11.03;;;6.33;;
5878;SDS011;2965;42.640;23.370;2022-10-15T20:47:03;12.00;;;6.30;;
5878;SDS011;2965;42.640;23.370;2022-10-15T20:49:34;13.90;;;6.40;;
5878;SDS011;2965;42.640;23.370;2022-10-15T20:52:07;8.03;;;7.23;;
5878;SDS011;2965;42.640;23.370;2022-10-15T20:54:33;8.20;;;7.17;;
5878;SDS011;2965;42.640;23.370;2022-10-15T20:56:59;11.10;;;7.20;;